ADDS TAF Board (Experimental) INFO Settings
IDs: Format: Expanded Condensed

KORD - Chicago/O'Hare Intl, IL, US

Issued at 2339 UTC 28 Sep 2016
Updated at 2354 UTC 28 Sep 2016
Time2351Z 29/00Z 29/01Z 29/02Z 29/03Z 29/04Z 29/05Z 29/06Z 29/07Z 29/08Z 29/09Z 29/10Z 29/11Z 29/12Z
Type OBS PRVL PRVL PRVL PRVL PRVL PRVL PRVL PRVL PRVL PRVL PRVL PRVL PRVL
VIS 7 4 >6 >6 >6 >6 >6 >6 >6 >6 >6 >6 >6 >6
CIG 35 40 50 50 50 50 50 50 50 50 50 50 50 50
Cover BKN OVC BKN BKN BKN BKN BKN BKN BKN BKN BKN BKN BKN BKN
FltCat VFR MVFR VFR VFR VFR VFR VFR VFR VFR VFR VFR VFR VFR VFR
WX -TSRA SHRA VCTS VCSH VCSH VCSH VCSH VCSH VCSH VCSH VCSH VCSH VCSH VCSH VCSH
WDir 30 60 20 20 20 20 20 20 20 20 20 20 20 20
WSpd 16 20 12 12 12 12 12 12 12 12 12 12 12 12
WGst -- 30 20 20 20 20 20 20 20 20 20 20 20 20
R04/22
XWnd 3 -7 4 4 4 4 4 4 4 4 4 4 4 4
XGst -- -11 7 7 7 7 7 7 7 7 7 7 7 7
HWnd 16 19 11 11 11 11 11 11 11 11 11 11 11 11
HGst -- 28 19 19 19 19 19 19 19 19 19 19 19 19
R09/27
XWnd 14 10 11 11 11 11 11 11 11 11 11 11 11 11
XGst -- 15 19 19 19 19 19 19 19 19 19 19 19 19
HWnd 8 17 4 4 4 4 4 4 4 4 4 4 4 4
HGst -- 26 7 7 7 7 7 7 7 7 7 7 7 7
R10/28
XWnd 14 10 11 11 11 11 11 11 11 11 11 11 11 11
XGst -- 15 19 19 19 19 19 19 19 19 19 19 19 19
HWnd 8 17 4 4 4 4 4 4 4 4 4 4 4 4
HGst -- 26 7 7 7 7 7 7 7 7 7 7 7 7
R14/32
XWnd 15 20 10 10 10 10 10 10 10 10 10 10 10 10
XGst -- 30 17 17 17 17 17 17 17 17 17 17 17 17
HWnd -5 3 -6 -6 -6 -6 -6 -6 -6 -6 -6 -6 -6 -6
HGst -- 5 -10 -10 -10 -10 -10 -10 -10 -10 -10 -10 -10 -10

Raw TAF
KORD 282339Z 2900/3006 06020G30KT 4SM SHRA VCTS SCT025CB OVC040
  FM290030 02012G20KT P6SM VCSH SCT025 BKN050
  FM291400 03018G28KT P6SM VCSH BKN025
  FM300000 04012KT P6SM BKN025


Raw METAR
KORD 282351Z 03016KT 7SM -TSRA FEW023 BKN035CB BKN060 13/10 A3007 RMK AO2 PK WND 04029/2341 LTG DSNT N RAE20B37 TSB19 SLP184 OCNL LTGICCG OHD TS OHD MOV SW P0001 60013 T01280100 10150 20128 53034
KORD 282320Z 36017G23KT 10SM TS SCT065CB SCT080 BKN100 15/11 A3003 RMK AO2 LTG DSNT NE RAE20 TSB19 OCNL LTGICCG VC NE-E TS VC NE-E MOV SW P0000 T01500106
KORD 282311Z 36013KT 9SM VCTS -RA FEW060 SCT080 BKN095 BKN150 15/10 A3003 RMK AO2 LTG DSNT NE AND E P0000 T01500100
KORD 282251Z 35013KT 10SM -RA FEW045 SCT070 BKN085 BKN140 15/09 A3002 RMK AO2 LTG DSNT NE AND E RAB10E21B39 SLP165 P0000 T01500094
KORD 282151Z 01015G22KT 10SM FEW034 SCT050 BKN065 OVC140 15/08 A3000 RMK AO2 RAE21 SLP160 P0000 T01500083
KORD 282051Z 35012KT 10SM -RA FEW035 BKN050 OVC065 14/10 A2997 RMK AO2 RAE1957B19 SLP148 P0001 60012 T01390100 51011

METAR Board
Radar Display
Forecast Discussion

TAF Board Legend

Potential Impact
Threat None Slight Moderate High
Visibility (sm) ≥5.1 5.1>X≥3 3>X≥1 <1
Ceiling (100 ft) ≥30.1 30.1>X≥10 10>X≥5 <5
Wind Speed (kt) <10 10≤X<20 20≤X<30 ≥30
Wind Gust (kt) <15 15≤X<25 25≤X<35 ≥35
Weather No Wx Reported VCTS,-TS,-FZRA,SN TS,FZRA +TS,+FZRA,+SN